• Join FlightAware (Why Join?)
  • Login
  • US Flag GB Flag 
21:12 EDT


 

Airport Tracker/Info


-or-


 

Live Flight TrackerFlight Track Log ✈ BOE12 ✈ 30-Jan-2014 ✈ KBFI - KPAE

Flight Track Log - Related Links

Times and Time Zones

All times are in EST time to prevent confusion due to time zone crossing. See the BOE12 flight status page for this flight to view local times or setup timezone preferences in your user account.

Time Position Orientation Groundspeed Altitude Reporting Facility
EST Latitude Longitude Course Direction KTS MPH feet Rate Location/Type
14:13 47.5106 -122.2830 144° Southeast 168 193 1,900  Level FlightAware ADS-B
14:13 47.5026 -122.2750 146° Southeast 184 212 2,300 1,500 Climbing FlightAware ADS-B
14:14 47.4913 -122.2630 144° Southeast 213 245 2,600 1,740 Climbing FlightAware ADS-B
14:14 47.4778 -122.2480 143° Southeast 236 272 3,200 2,460 Climbing FlightAware ADS-B
14:14 47.4635 -122.2330 145° Southeast 256 295 3,900 3,060 Climbing FlightAware ADS-B
14:14 47.4481 -122.2170 145° Southeast 267 307 4,800 3,120 Climbing FlightAware ADS-B
14:14 47.4433 -122.2120 145° Southeast 268 308 5,000 2,640 Climbing FlightAware ADS-B
14:14 47.4391 -122.2080 147° Southeast 266 306 5,200 2,520 Climbing FlightAware ADS-B
14:15 47.4356 -122.2060 159° South 264 304 5,300 2,520 Climbing FlightAware ADS-B
14:15 47.4309 -122.2040 164° South 260 299 5,500 2,220 Climbing FlightAware ADS-B
14:15 47.4262 -122.2020 164° South 259 298 5,600 1,500 Climbing FlightAware ADS-B
14:15 47.4210 -122.2010 173° South 260 299 5,700 1,260 Climbing FlightAware ADS-B
14:15 47.4029 -122.1980 174° South 263 303 6,000 960 Climbing FlightAware ADS-B
14:15 47.3838 -122.1960 176° South 263 303 6,200 1,500 Climbing FlightAware ADS-B
14:16 47.3651 -122.1930 174° South 266 306 6,800 3,060 Climbing FlightAware ADS-B
14:16 47.3461 -122.1910 176° South 272 313 7,800 3,060 Climbing FlightAware ADS-B
14:16 47.3297 -122.1890 175° South 276 318 8,300 2,100 Climbing FlightAware ADS-B
14:16 47.3107 -122.1860 174° South 278 320 8,800 1,380 Climbing FlightAware ADS-B
14:16 47.2906 -122.1830 174° South 285 328 9,000 720 Climbing FlightAware ADS-B
14:17 47.2701 -122.1800 174° South 288 331 9,200 1,740 Climbing FlightAware ADS-B
14:17 47.2497 -122.1770 174° South 292 336 9,900 2,880 Climbing FlightAware ADS-B
14:18 47.2077 -122.1710 174° South 319 367 11,400 2,640 Climbing FlightAware ADS-B
14:18 47.1592 -122.1630 174° South 360 414 12,600 2,700 Climbing FlightAware ADS-B
14:19 47.1080 -122.1540 173° South 381 438 14,200 2,400 Climbing FlightAware ADS-B
14:19 47.0548 -122.1460 174° South 386 444 15,000 780 Climbing FlightAware ADS-B
14:20 47.0034 -122.1370 173° South 386 444 15,000  Level FlightAware ADS-B
14:20 46.9487 -122.1190 167° South 390 449 15,000  Level FlightAware ADS-B
14:21 46.8962 -122.0980 165° South 388 447 15,000  Level FlightAware ADS-B
14:21 46.8436 -122.0780 165° South 388 447 15,000  Level FlightAware ADS-B
14:22 46.7909 -122.0570 165° South 388 447 15,000  Level FlightAware ADS-B
14:22 46.7376 -122.0370 166° South 390 449 15,000  Level FlightAware ADS-B
14:23 46.6850 -122.0170 165° South 390 449 15,000  Level FlightAware ADS-B
14:23 46.6566 -122.0060 165° South 390 449 15,000  Level FlightAware ADS-B
14:23 46.6458 -122.0000 159° South 392 451 15,000  Level FlightAware ADS-B
14:23 46.6373 -121.9950 158° South 396 456 15,000  Level FlightAware ADS-B
14:23 46.6307 -121.9890 148° Southeast 398 458 15,000  Level FlightAware ADS-B
14:23 46.6222 -121.9800 144° Southeast 400 460 15,000  Level FlightAware ADS-B
14:23 46.6086 -121.9590 133° Southeast 403 464 15,000  Level FlightAware ADS-B
14:23 46.6025 -121.9470 126° Southeast 406 467 15,000  Level FlightAware ADS-B
14:24 46.5929 -121.9180 116° Southeast 407 468 15,000  Level FlightAware ADS-B
14:24 46.5704 -121.8410 113° Southeast 406 467 15,000  Level FlightAware ADS-B
14:25 46.5477 -121.7650 113° Southeast 407 468 15,000  Level FlightAware ADS-B
14:25 46.5254 -121.6910 114° Southeast 406 467 15,000  Level FlightAware ADS-B
14:26 46.5023 -121.6140 114° Southeast 408 470 15,000  Level FlightAware ADS-B
14:26 46.4767 -121.5300 114° Southeast 407 468 15,000  Level FlightAware ADS-B
14:27 46.4512 -121.4450 114° Southeast 373 429 15,000 60 Level FlightAware ADS-B
14:27 46.4326 -121.3840 114° Southeast 313 360 15,100 60 Climbing FlightAware ADS-B
14:28 46.4092 -121.3075 114° Southeast 287 330 15,100 -840 Level Seattle Center
14:29 46.3817 -121.2186 114° Southeast 247 284 13,700 -1,380 Descending Seattle Center
14:30 46.3564 -121.1344 113° Southeast 231 266 12,300 -840 Descending Seattle Center
14:31 46.3319 -121.0547 114° Southeast 219 252 12,000 -180 Descending Seattle Center
14:32 46.3069 -120.9719 114° Southeast 210 242 12,000  Level Seattle Center
14:33 46.2833 -120.8956 114° Southeast 209 241 12,000  Level Seattle Center
14:34 46.2592 -120.8206 115° Southeast 207 238 12,000  Level Seattle Center
14:35 46.2361 -120.7472 114° Southeast 202 232 12,000  Level Seattle Center
14:36 46.2122 -120.6706 114° Southeast 208 239 12,000  Level Seattle Center
14:37 46.1917 -120.6056 115° Southeast 200 230 12,000  Level Seattle Center
14:38 46.1658 -120.5244 115° Southeast 192 221 12,000  Level Seattle Center
14:39 46.1422 -120.4517 115° Southeast 195 224 12,000  Level Seattle Center
14:40 46.1208 -120.3786 113° Southeast 198 228 12,000  Level Seattle Center
14:41 46.0975 -120.3072 115° Southeast 196 226 12,000  Level Seattle Center
14:42 46.0753 -120.2361 114° Southeast 195 224 12,000  Level Seattle Center
14:43 46.0528 -120.1650 114° Southeast 195 224 12,000  Level Seattle Center
14:44 46.0297 -120.0944 115° Southeast 194 223 12,000  Level Seattle Center
14:45 46.0100 -120.0183 110° East 194 223 12,000  Level Seattle Center
14:46 46.0556 -119.9992 16° North 173 199 12,000  Level Seattle Center
14:47 46.1075 -119.9986 360° North 174 200 12,000  Level Seattle Center
14:48 46.1556 -119.9994 359° North 173 199 12,000  Level Seattle Center
14:50 46.2031 -119.9992 360° North 171 197 12,000  Level Seattle Center
14:51 46.2525 -120.0000 359° North 177 204 12,000  Level Seattle Center
14:52 46.3022 -120.0014 359° North 180 207 12,000  Level Seattle Center
14:53 46.3564 -119.9992 North 182 209 12,000  Level Seattle Center
14:54 46.4044 -119.9981 North 176 203 12,000  Level Seattle Center
14:55 46.4158 -119.9228 78° East 207 238 12,000  Level Seattle Center
14:56 46.4158 -119.8408 90° East 203 234 12,000  Level Seattle Center
14:57 46.4225 -119.7594 83° East 210 242 12,000  Level Seattle Center
14:58 46.4728 -119.7506 North 168 193 12,000  Level Seattle Center
14:59 46.5172 -119.7511 360° North 164 189 12,000  Level Seattle Center
15:00 46.5642 -119.7492 North 168 193 12,000  Level Seattle Center
15:01 46.6139 -119.7503 359° North 165 190 12,000 -60 Level Seattle Center
15:02 46.6689 -119.7514 359° North 206 237 11,900  Descending Seattle Center
15:03 46.7344 -119.7503 North 232 267 12,000  Climbing Seattle Center
15:04 46.7992 -119.7492 North 234 269 12,000  Level Seattle Center
15:05 46.8642 -119.7481 North 234 269 12,000  Level Seattle Center
15:06 46.9358 -119.7483 360° North 239 275 12,000  Level Seattle Center
15:07 47.0042 -119.7492 360° North 245 282 12,000  Level Seattle Center
15:08 47.0697 -119.7494 360° North 238 274 12,000  Level Seattle Center
15:09 47.1233 -119.7494 360° North 188 216 12,000  Level Seattle Center
15:10 47.1725 -119.7503 359° North 177 204 12,000  Level Seattle Center
15:11 47.2250 -119.7497 360° North 176 203 12,000  Level Seattle Center
15:12 47.2725 -119.7492 360° North 171 197 12,000  Level Seattle Center
15:13 47.3208 -119.7500 359° North 173 199 12,000  Level Seattle Center
15:14 47.3694 -119.7514 359° North 174 200 12,000  Level Seattle Center
15:15 47.4144 -119.7664 347° North 185 213 12,000  Level Seattle Center
15:16 47.4164 -119.8389 272° West 167 192 12,000  Level Seattle Center
15:17 47.4164 -119.9072 270° West 167 192 12,000  Level Seattle Center
15:18 47.4150 -119.9744 268° West 164 189 12,000  Level Seattle Center
15:19 47.4525 -120.0003 335° Northwest 173 199 12,000  Level Seattle Center
15:20 47.5008 -120.0003 360° North 176 203 12,000  Level Seattle Center
15:21 47.5494 -120.0003 360° North 166 191 12,000  Level Seattle Center
15:22 47.5983 -120.0008 360° North 173 199 12,000  Level Seattle Center
15:23 47.6433 -120.0011 360° North 167 192 12,000  Level Seattle Center
15:24 47.6892 -120.0019 359° North 165 190 12,000  Level Seattle Center
15:25 47.7322 -119.9864 14° North 164 189 12,000  Level Seattle Center
15:26 47.7772 -119.9475 30° Northeast 173 199 12,000  Level Seattle Center
15:27 47.8206 -119.9094 31° Northeast 179 206 12,000  Level Seattle Center
15:28 47.8622 -119.8728 31° Northeast 176 203 12,000  Level Seattle Center
15:29 47.9050 -119.8342 31° Northeast 180 207 12,000  Level Seattle Center
15:30 47.9481 -119.7958 31° Northeast 179 206 12,000  Level Seattle Center
15:31 47.9942 -119.7536 31° Northeast 180 207 12,000  Level Seattle Center
15:32 47.9994 -119.6797 84° East 192 221 12,000  Level Seattle Center
15:33 47.9992 -119.6028 90° East 185 213 12,000  Level Seattle Center
15:34 47.9986 -119.5253 91° East 186 214 12,000  Level Seattle Center
15:35 47.9994 -119.4467 89° East 189 217 12,000  Level Seattle Center
15:36 47.9539 -119.4169 156° South 187 215 12,000  Level Seattle Center
15:37 47.8889 -119.4172 180° South 247 284 12,000  Level Seattle Center
15:38 47.8153 -119.4181 180° South 265 305 12,000  Level Seattle Center
15:39 47.7436 -119.4172 180° South 260 299 12,000  Level Seattle Center
15:40 47.6719 -119.4178 180° South 258 297 12,000  Level Seattle Center
15:41 47.5956 -119.4172 180° South 256 295 12,000  Level Seattle Center
15:42 47.5261 -119.4172 180° South 252 290 12,000  Level Seattle Center
15:43 47.4556 -119.4169 180° South 253 291 12,000  Level Seattle Center
15:44 47.3847 -119.4172 180° South 255 293 12,000  Level Seattle Center
15:45 47.3136 -119.4167 180° South 257 296 12,000  Level Seattle Center
15:46 47.2364 -119.4156 179° South 259 298 12,000  Level Seattle Center
15:47 47.1656 -119.4161 180° South 259 298 12,000  Level Seattle Center
15:48 47.0939 -119.4167 180° South 259 298 12,000  Level Seattle Center
15:49 47.0153 -119.4169 180° South 265 305 12,000  Level Seattle Center
15:50 46.9417 -119.4167 180° South 266 306 12,000  Level Seattle Center
15:51 46.8689 -119.4167 180° South 261 300 12,000  Level Seattle Center
15:52 46.7969 -119.4164 180° South 260 299 12,000  Level Seattle Center
15:53 46.7242 -119.4167 180° South 258 297 12,000  Level Seattle Center
15:54 46.6558 -119.4164 180° South 240 276 12,000  Level Seattle Center
15:56 46.6006 -119.4158 180° South 184 212 12,000  Level Seattle Center
15:57 46.5500 -119.4158 180° South 183 211 12,000  Level Seattle Center
15:58 46.5003 -119.4167 181° South 182 209 12,000  Level Seattle Center
15:59 46.4492 -119.4164 180° South 184 212 12,000  Level Seattle Center
16:00 46.4158 -119.3700 136° Southeast 210 242 12,000  Level Seattle Center
16:01 46.4158 -119.2814 90° East 206 237 12,000  Level Seattle Center
16:02 46.4156 -119.1992 90° East 205 236 12,000  Level Seattle Center
16:03 46.3750 -119.1664 151° Southeast 188 216 12,000  Level Seattle Center
16:04 46.3244 -119.1664 180° South 183 211 12,000  Level Seattle Center
16:05 46.2711 -119.1647 179° South 180 207 12,000  Level Seattle Center
16:06 46.2214 -119.1667 182° South 181 208 12,000  Level Seattle Center
16:07 46.1706 -119.1669 180° South 183 211 12,000  Level Seattle Center
16:08 46.1197 -119.1667 180° South 183 211 12,000  Level Seattle Center
16:09 46.0706 -119.1667 180° South 178 205 12,000  Level Seattle Center
16:10 46.0169 -119.1669 180° South 180 207 12,000  Level Seattle Center
16:11 46.0011 -119.0978 108° East 202 232 12,000  Level Seattle Center
16:12 46.0003 -119.0206 91° East 195 224 12,000  Level Seattle Center
16:13 46.0006 -118.9403 90° East 200 230 12,000  Level Seattle Center
16:14 46.0006 -118.8533 90° East 203 234 12,000  Level Seattle Center
16:15 46.0458 -118.8344 16° North 175 201 12,000  Level Seattle Center
16:16 46.0939 -118.8347 360° North 172 198 12,000  Level Seattle Center
16:17 46.1567 -118.8347 360° North 236 272 12,000  Level Seattle Center
16:18 46.2289 -118.8347 360° North 241 277 12,000  Level Seattle Center
16:19 46.2944 -118.8356 359° North 238 274 12,000  Level Seattle Center
16:20 46.3597 -118.8342 North 237 273 12,000  Level Seattle Center
16:21 46.4258 -118.8347 360° North 238 274 12,000  Level Seattle Center
16:22 46.4978 -118.8336 North 240 276 12,000  Level Seattle Center
16:23 46.5658 -118.8333 360° North 244 281 12,000  Level Seattle Center
16:24 46.6239 -118.8347 359° North 202 232 12,000  Level Seattle Center
16:25 46.6719 -118.8333 North 174 200 12,000  Level Seattle Center
16:26 46.7197 -118.8333 360° North 173 199 12,000  Level Seattle Center
16:27 46.7689 -118.8342 359° North 171 197 12,000  Level Seattle Center
16:28 46.8172 -118.8344 360° North 174 200 12,000  Level Seattle Center
16:29 46.8694 -118.8347 360° North 174 200 12,000  Level Seattle Center
16:30 46.9131 -118.8028 27° Northeast 182 209 12,000  Level Seattle Center
16:31 46.9519 -118.7608 36° Northeast 175 201 12,000  Level Seattle Center
16:32 46.9928 -118.7194 35° Northeast 179 206 12,000 -60 Level Seattle Center
16:33 47.0364 -118.6739 35° Northeast 181 208 11,900 -60 Descending Seattle Center
16:34 47.0758 -118.6319 36° Northeast 177 204 11,900  Level Seattle Center
16:35 47.1164 -118.5892 36° Northeast 181 208 11,900  Level Seattle Center
16:36 47.1567 -118.5453 37° Northeast 185 213 11,900  Level Seattle Center
16:37 47.2003 -118.4983 36° Northeast 183 211 11,900  Level Seattle Center
16:38 47.1997 -118.4214 91° East 191 220 11,900  Level Seattle Center
16:39 47.2003 -118.3464 89° East 185 213 11,900  Level Seattle Center
16:40 47.2017 -118.2719 88° East 183 211 11,900  Level Seattle Center
16:41 47.2006 -118.1969 91° East 185 213 11,900  Level Seattle Center
16:42 47.2019 -118.1161 89° East 185 213 11,900  Level Seattle Center
16:43 47.2008 -118.0411 91° East 185 213 11,900  Level Seattle Center
16:44 47.2311 -118.0003 42° Northeast 187 215 12,000  Climbing Seattle Center
16:45 47.2797 -118.0011 359° North 178 205 11,900 -60 Descending Seattle Center
16:46 47.3278 -118.0011 360° North 174 200 11,900  Level Seattle Center
16:47 47.3800 -118.0000 North 174 200 11,900  Level Seattle Center
16:48 47.4278 -118.0008 359° North 173 199 11,900  Level Seattle Center
16:49 47.4758 -118.0003 360° North 173 199 11,900  Level Seattle Center
16:50 47.5247 -117.9994 North 177 204 11,900  Level Seattle Center
16:51 47.5733 -118.0000 360° North 175 201 11,900  Level Seattle Center
16:52 47.6178 -118.0211 342° North 177 204 11,900  Level Seattle Center
16:53 47.6178 -118.0897 270° West 168 193 11,900  Level Seattle Center
16:54 47.6178 -118.1603 270° West 170 196 11,900  Level Seattle Center
16:55 47.6172 -118.2294 269° West 168 193 11,900  Level Seattle Center
16:56 47.6183 -118.2989 271° West 168 193 11,900  Level Seattle Center
16:58 47.6181 -118.3731 270° West 167 192 11,900  Level Seattle Center
16:59 47.5933 -118.4167 230° Southwest 162 186 11,900  Level Seattle Center
17:00 47.5433 -118.4161 180° South 175 201 11,900  Level Seattle Center
17:01 47.4950 -118.4164 180° South 173 199 11,900  Level Seattle Center
17:02 47.4461 -118.4156 179° South 175 201 11,900  Level Seattle Center
17:03 47.4164 -118.4606 226° Southwest 177 204 12,000  Climbing Seattle Center
17:04 47.4175 -118.5300 271° West 172 198 12,000  Level Seattle Center
17:05 47.4169 -118.5992 269° West 169 194 12,000  Level Seattle Center
17:06 47.4175 -118.6736 271° West 172 198 12,000  Level Seattle Center
17:07 47.4169 -118.7419 269° West 167 192 12,000  Level Seattle Center
17:08 47.4172 -118.8108 270° West 170 196 12,000  Level Seattle Center
17:09 47.4567 -118.8339 338° Northwest 177 204 12,000  Level Seattle Center
17:10 47.5058 -118.8331 North 179 206 12,000  Level Seattle Center
17:11 47.5589 -118.8336 360° North 178 205 12,000  Level Seattle Center
17:12 47.6083 -118.8333 360° North 179 206 12,000  Level Seattle Center
17:13 47.6575 -118.8333 360° North 177 204 12,000  Level Seattle Center
17:14 47.7072 -118.8333 360° North 177 204 12,000  Level Seattle Center
17:15 47.7489 -118.7936 33° Northeast 178 205 12,000  Level Seattle Center
17:16 47.7939 -118.7433 37° Northeast 186 214 12,000  Level Seattle Center
17:17 47.8308 -118.6986 39° Northeast 179 206 12,000  Level Seattle Center
17:18 47.8736 -118.6486 38° Northeast 182 209 12,000  Level Seattle Center
17:19 47.9136 -118.6008 39° Northeast 186 214 12,000  Level Seattle Center
17:20 47.9536 -118.5533 38° Northeast 187 215 12,000  Level Seattle Center
17:21 47.9939 -118.5058 38° Northeast 187 215 12,000  Level Seattle Center
17:22 48.0014 -118.4292 82° East 196 226 12,000  Level Seattle Center
17:23 48.0014 -118.3508 90° East 189 217 12,000  Level Seattle Center
17:24 48.0011 -118.2686 90° East 186 214 12,000  Level Seattle Center
17:25 48.0003 -118.1911 91° East 187 215 12,000  Level Seattle Center
17:26 48.0006 -118.1128 90° East 188 216 12,000  Level Seattle Center
17:27 48.0006 -118.0344 90° East 190 219 12,000  Level Seattle Center
17:28 48.0003 -117.9569 90° East 188 216 12,000  Level Seattle Center
17:29 47.9978 -117.8789 93° East 189 217 12,000  Level Seattle Center
17:30 47.9522 -117.8261 142° Southeast 188 216 12,000  Level Seattle Center
17:31 47.9106 -117.7775 142° Southeast 191 220 12,000  Level Seattle Center
17:32 47.8703 -117.7297 141° Southeast 188 216 12,000  Level Seattle Center
17:33 47.8292 -117.6822 142° Southeast 187 215 12,000  Level Seattle Center
17:34 47.7883 -117.6342 142° Southeast 187 215 12,000  Level Seattle Center
17:35 47.7442 -117.5833 142° Southeast 187 215 12,000  Level Seattle Center
17:36 47.7000 -117.5500 153° Southeast 186 214 12,000  Level Seattle Center
17:37 47.6492 -117.5503 180° South 183 211 12,000  Level Seattle Center
17:38 47.6006 -117.5503 180° South 178 205 12,000  Level Seattle Center
17:39 47.5497 -117.5503 180° South 179 206 12,000  Level Seattle Center
17:40 47.4983 -117.5500 180° South 184 212 12,000  Level Seattle Center
17:41 47.4478 -117.5503 180° South 182 209 12,000  Level Seattle Center
17:42 47.3967 -117.5506 180° South 183 211 12,000  Level Seattle Center
17:43 47.3464 -117.5506 180° South 182 209 12,000  Level Seattle Center
17:44 47.2928 -117.5511 180° South 180 207 12,000  Level Seattle Center
17:45 47.2428 -117.5508 180° South 181 208 12,000  Level Seattle Center
17:46 47.1919 -117.5514 180° South 183 211 12,000  Level Seattle Center
17:47 47.1431 -117.5508 180° South 178 205 12,000  Level Seattle Center
17:48 47.0994 -117.5719 198° South 169 194 12,000  Level Seattle Center
17:49 47.0581 -117.6178 217° Southwest 173 199 12,000  Level Seattle Center
17:50 47.0200 -117.6597 217° Southwest 172 198 12,000  Level Seattle Center
17:51 46.9822 -117.7028 218° Southwest 173 199 12,000  Level Seattle Center
17:52 46.9442 -117.7444 217° Southwest 172 198 12,000  Level Seattle Center
17:53 46.9081 -117.7850 218° Southwest 164 189 12,000  Level Seattle Center
17:54 46.8683 -117.8289 217° Southwest 166 191 12,000  Level Seattle Center
17:55 46.8314 -117.8694 217° Southwest 166 191 12,000  Level Seattle Center
17:56 46.8172 -117.9283 251° West 168 193 12,000  Level Seattle Center
17:57 46.8181 -117.9950 271° West 162 186 12,000  Level Seattle Center
17:58 46.8181 -118.0617 270° West 165 190 12,000  Level Seattle Center
17:59 46.8164 -118.1325 268° West 156 180 12,000  Level Seattle Center
18:00 46.8164 -118.1989 270° West 166 191 12,000  Level Seattle Center
18:01 46.8169 -118.2656 270° West 167 192 12,000  Level Seattle Center
18:02 46.8166 -118.2993 270° West  Level FlightAware Approximate
18:03 46.8164 -118.3325 269° West 165 190 12,000  Level Seattle Center
18:04 46.8156 -118.3989 269° West 164 189 12,000  Level Seattle Center
18:05 46.7689 -118.4167 195° South 175 201 12,000  Level Seattle Center
18:06 46.7192 -118.4181 181° South 174 200 12,000  Level Seattle Center
18:07 46.6706 -118.4181 180° South 175 201 12,000  Level Seattle Center
18:08 46.6194 -118.4164 179° South 182 209 12,000  Level Seattle Center
18:09 46.5700 -118.4167 180° South 178 205 12,000  Level Seattle Center
18:10 46.5200 -118.4181 181° South 180 207 12,000  Level Seattle Center
18:11 46.4647 -118.4175 180° South 184 212 12,000  Level Seattle Center
18:12 46.4189 -118.3958 162° South 196 226 12,000  Level Seattle Center
18:13 46.4164 -118.3142 93° East 205 236 12,000  Level Seattle Center
18:14 46.4161 -118.2303 90° East 209 241 12,000  Level Seattle Center
18:15 46.4164 -118.1478 90° East 208 239 12,000 -60 Level Seattle Center
18:16 46.4167 -118.0647 90° East 209 241 11,900 -60 Descending Seattle Center
18:17 46.4347 -117.9994 68° East 206 237 11,900  Level Seattle Center
18:18 46.4825 -118.0008 359° North 173 199 11,900  Level Seattle Center
18:19 46.5306 -118.0008 360° North 172 198 11,900  Level Seattle Center
18:20 46.5783 -117.9925 North 179 206 11,900  Level Seattle Center
18:21 46.5831 -117.9147 85° East 205 236 11,900  Level Seattle Center
18:22 46.5831 -117.8367 90° East 195 224 11,900  Level Seattle Center
18:23 46.5831 -117.7572 90° East 196 226 11,900  Level Seattle Center
18:24 46.5828 -117.6783 90° East 194 223 11,900  Level Seattle Center
18:25 46.5833 -117.5861 89° East 193 222 11,900  Level Seattle Center
18:26 46.5756 -117.5094 98° East 201 231 11,900  Level Seattle Center
18:27 46.5258 -117.5000 173° South 188 216 11,900  Level Seattle Center
18:28 46.4750 -117.5008 181° South 181 208 11,900  Level Seattle Center
18:29 46.4253 -117.5036 182° South 181 208 11,900  Level Seattle Center
18:30 46.3739 -117.5006 178° South 182 209 11,900  Level Seattle Center
18:31 46.3239 -117.5006 180° South 181 208 11,900  Level Seattle Center
18:32 46.2739 -117.5022 181° South 180 207 11,900  Level Seattle Center
18:33 46.2244 -117.5028 180° South 181 208 11,900  Level Seattle Center
18:34 46.1733 -117.5028 180° South 184 212 11,900  Level Seattle Center
18:35 46.1222 -117.5011 179° South 184 212 11,900  Level Seattle Center
18:36 46.0717 -117.5028 181° South 182 209 11,900  Level Seattle Center
18:37 46.0097 -117.5017 179° South 186 214 11,900  Level Seattle Center
18:38 45.9997 -117.5639 257° West 167 192 11,900  Level Seattle Center
18:39 46.0008 -117.6542 271° West 218 251 11,900  Level Seattle Center
18:40 46.0011 -117.7472 270° West 231 266 11,900  Level Seattle Center
18:41 46.0008 -117.8375 270° West 228 262 11,900  Level Seattle Center
18:42 46.0019 -117.9267 271° West 224 258 11,900  Level Seattle Center
18:43 46.0014 -118.0169 270° West 226 260 11,900  Level Seattle Center
18:44 46.0017 -118.1086 270° West 230 265 11,900  Level Seattle Center
18:45 46.0019 -118.2086 270° West 228 262 12,000  Climbing Seattle Center
18:46 46.0017 -118.3000 270° West 229 264 12,000  Level Seattle Center
18:47 46.0014 -118.3911 270° West 228 262 12,000  Level Seattle Center
18:48 46.0011 -118.4917 270° West 232 267 12,000  Level Seattle Center
18:49 46.0003 -118.5872 269° West 237 273 12,000  Level Seattle Center
18:50 46.0014 -118.6872 271° West 248 285 12,000  Level Seattle Center
18:51 46.0008 -118.7928 270° West 261 300 12,000  Level Seattle Center
18:52 46.0003 -118.8978 270° West 262 302 12,000  Level Seattle Center
18:53 46.0008 -119.0053 270° West 269 310 12,000  Level Seattle Center
18:54 46.0008 -119.1314 270° West 289 333 12,000  Level Seattle Center
18:55 45.9994 -119.2467 269° West 288 331 12,000  Level Seattle Center
18:56 46.0011 -119.3650 271° West 295 339 12,000  Level Seattle Center
18:57 46.0011 -119.4808 270° West 291 335 12,000  Level Seattle Center
18:58 46.0003 -119.5964 269° West 290 334 12,000  Level Seattle Center
18:59 46.0011 -119.6989 271° West 255 293 12,000  Level Seattle Center
19:00 46.0006 -119.7881 270° West 206 237 12,000  Level Seattle Center
19:01 46.0000 -119.8711 269° West 207 238 12,000  Level Seattle Center
19:02 45.9997 -119.9536 270° West 205 236 12,000  Level Seattle Center
19:03 46.0100 -120.0358 280° West 212 244 12,100  Climbing Seattle Center
19:04 46.0447 -120.1419 295° West 311 358 12,000 300 Descending Seattle Center
19:05 46.0883 -120.2775 295° West 368 423 12,800 3,120 Climbing Seattle Center
19:07 46.1433 -120.4506 295° West 417 480 18,400 1,020 Climbing Seattle Center
19:12 46.4370 -121.3900 295° West 447 514 20,000 240 Climbing FlightAware ADS-B
19:13 46.4697 -121.4960 294° West 449 517 20,000  Level FlightAware ADS-B
19:13 46.4952 -121.5810 294° West 451 519 20,000  Level FlightAware ADS-B
19:14 46.5237 -121.6740 294° West 450 518 20,000  Level FlightAware ADS-B
19:14 46.5487 -121.7580 293° West 447 514 20,000  Level FlightAware ADS-B
19:15 46.5728 -121.8380 294° West 404 465 20,000  Level FlightAware ADS-B
19:15 46.5945 -121.9110 293° West 364 419 20,000  Level FlightAware ADS-B
19:16 46.5993 -121.9250 297° West 358 412 20,000  Level FlightAware ADS-B
19:16 46.6024 -121.9340 297° West 355 409 20,000  Level FlightAware ADS-B
19:16 46.6076 -121.9450 305° West 351 404 20,000  Level FlightAware ADS-B
19:16 46.6159 -121.9600 309° West 349 402 20,000  Level FlightAware ADS-B
19:16 46.6248 -121.9730 315° West 349 402 20,000  Level FlightAware ADS-B
19:16 46.6313 -121.9810 320° Northwest 357 411 20,000  Level FlightAware ADS-B
19:16 46.6383 -121.9880 326° Northwest 369 425 20,000  Level FlightAware ADS-B
19:16 46.6444 -121.9930 331° Northwest 379 436 20,000  Level FlightAware ADS-B
19:16 46.6534 -122.0000 332° Northwest 393 452 20,000  Level FlightAware ADS-B
19:16 46.6623 -122.0050 339° North 404 465 20,000  Level FlightAware ADS-B
19:17 46.7209 -122.0280 345° North 447 514 20,000  Level FlightAware ADS-B
19:17 46.7817 -122.0520 345° North 453 521 20,000  Level FlightAware ADS-B
19:18 46.8425 -122.0750 345° North 453 521 20,000 -420 Level FlightAware ADS-B
19:18 46.9037 -122.0990 345° North 446 513 19,600 -1,020 Descending FlightAware ADS-B
19:19 46.9629 -122.1220 345° North 430 495 19,000 -600 Descending FlightAware ADS-B
19:19 47.0182 -122.1440 345° North 388 447 19,000  Level FlightAware ADS-B
19:20 47.0704 -122.1650 345° North 376 433 19,000  Level FlightAware ADS-B
19:20 47.1208 -122.1850 345° North 376 433 19,000  Level FlightAware ADS-B
19:21 47.1719 -122.2050 345° North 379 436 19,000 -420 Level FlightAware ADS-B
19:21 47.2233 -122.2250 345° North 372 428 18,600 -1,380 Descending FlightAware ADS-B
19:22 47.2702 -122.2420 346° North 367 422 17,700 -2,160 Descending FlightAware ADS-B
19:22 47.2974 -122.2510 347° North 367 422 17,000 -2,640 Descending FlightAware ADS-B
19:22 47.3085 -122.2530 353° North 368 423 16,700 -2,520 Descending FlightAware ADS-B
19:22 47.3178 -122.2540 356° North 369 425 16,500 -2,040 Descending FlightAware ADS-B
19:22 47.3230 -122.2540 360° North 369 425 16,400 -3,000 Descending FlightAware ADS-B
19:23 47.3322 -122.2530 North 371 427 16,100 -2,760 Descending FlightAware ADS-B
19:23 47.3425 -122.2501 11° North 371 427 15,900 -2,400 Descending FlightAware ADS-B
19:23 47.3832 -122.2380 11° North 370 426 14,900 -2,280 Descending FlightAware ADS-B
19:23 47.4130 -122.2291 11° North 363 418 14,300 -1,980 Descending FlightAware ADS-B
19:24 47.4333 -122.2230 12° North 359 413 13,900 -2,160 Descending FlightAware ADS-B
19:24 47.4817 -122.2080 12° North 353 406 12,800 -2,340 Descending FlightAware ADS-B
19:25 47.5295 -122.1930 12° North 351 404 11,600 -1,620 Descending FlightAware ADS-B
19:25 47.5768 -122.1790 11° North 326 375 11,200 -720 Descending FlightAware ADS-B
19:25 47.6050 -122.1702 12° North 309 356 11,000 -600 Descending FlightAware ADS-B
19:26 47.6213 -122.1660 10° North 301 346 10,900 -900 Descending FlightAware ADS-B
19:26 47.6615 -122.1540 11° North 288 331 10,400 -1,140 Descending FlightAware ADS-B
19:26 47.6848 -122.1480 10° North 286 329 10,000 -1,380 Descending FlightAware ADS-B
19:27 47.7065 -122.1420 11° North 283 326 9,600 -1,440 Descending FlightAware ADS-B
19:27 47.7237 -122.1380 North 283 326 9,300 -1,560 Descending FlightAware ADS-B
19:27 47.7415 -122.1330 11° North 283 326 8,900 -1,740 Descending FlightAware ADS-B
19:27 47.7504 -122.1310 North 281 323 8,700 -1,320 Descending FlightAware ADS-B
19:27 47.7598 -122.1300 North 279 321 8,600 -1,200 Descending FlightAware ADS-B
19:28 47.7766 -122.1300 360° North 275 316 8,300 -1,500 Descending FlightAware ADS-B
19:28 47.7951 -122.1300 360° North 271 312 7,900 -1,680 Descending FlightAware ADS-B
19:28 47.8140 -122.1310 358° North 268 308 7,500 -1,800 Descending FlightAware ADS-B
19:28 47.8201 -122.1309 North 268 308 7,300 -2,640 Descending FlightAware ADS-B
19:28 47.8330 -122.1310 360° North 269 310 6,800 -2,820 Descending FlightAware ADS-B
19:29 47.8525 -122.1310 360° North 270 311 6,100 -2,760 Descending FlightAware ADS-B
19:29 47.8719 -122.1320 358° North 266 306 5,400 -2,400 Descending FlightAware ADS-B
19:30 47.9336 -122.1356 358° North 264 304 3,200 -1,680 Descending Seattle Center
19:30 47.9697 -122.1383 357° North 237 273 3,000 -240 Descending Seattle Center
19:31 47.9933 -122.1381 360° North 215 247 3,000  Level Seattle Center
19:31 48.0219 -122.1422 354° North 180 207 3,000  Level Seattle Center
19:32 48.0447 -122.1411 North 186 214 3,000  Level Seattle Center
19:32 48.0733 -122.1433 357° North 184 212 3,000  Level Seattle Center
19:33 48.0956 -122.1433 360° North 185 213 3,000  Level Seattle Center
19:33 48.1231 -122.1553 344° North 186 214 3,000  Level Seattle Center
19:34 48.1275 -122.1819 284° West 187 215 3,000  Level Seattle Center
19:34 48.1275 -122.2258 270° West 170 196 3,000  Level Seattle Center
19:35 48.1281 -122.2531 272° West 175 201 3,000  Level Seattle Center
19:35 48.1106 -122.2817 228° Southwest 148 170 3,000  Level Seattle Center
19:36 48.0892 -122.2906 196° South 145 167 3,000  Level Seattle Center
19:36 48.0750 -122.2917 183° South 145 167 3,000  Level Seattle Center
19:37 48.0489 -122.2886 176° South 144 166 3,000 -300 Level Seattle Center
19:38 48.0256 -122.2894 181° South 142 163 2,700 -600 Descending Seattle Center
19:38 48.0111 -122.2883 177° South 133 153 2,400 -720 Descending Seattle Center
19:39 47.9919 -122.2883 180° South 131 151 2,000 -720 Descending Seattle Center
19:39 47.9767 -122.2872 177° South 126 145 1,700 -720 Descending Seattle Center
19:40 47.9583 -122.2872 180° South 121 139 1,300 -720 Descending Seattle Center
19:40 47.9431 -122.2869 179° South 121 139 1,000 -360 Descending Seattle Center
19:41 47.9128 -122.2861 179° South 119 137 800 -240 Descending Seattle Center
19:43 47.9070 -122.2816 10° North  Level Estimated